createdAt,value
2018-12-20T00:01:34.865Z,83051.48
2018-12-20T00:06:37.911Z,83038.02
2018-12-20T00:11:41.048Z,83029.68
2018-12-20T00:16:44.147Z,83038.05
2018-12-20T00:21:47.267Z,83045.55
2018-12-20T00:26:50.374Z,83060.71
2018-12-20T00:31:53.455Z,83064.78
2018-12-20T00:36:56.603Z,83060.27
2018-12-20T00:41:59.720Z,83061.51
2018-12-20T00:47:02.942Z,83066.17
2018-12-20T00:52:06.365Z,83067.27
2018-12-20T00:57:09.559Z,83064.41
2018-12-20T01:02:12.674Z,83064.73
2018-12-20T01:07:15.930Z,83081.95
2018-12-20T01:12:19.128Z,83110.24
2018-12-20T01:17:22.247Z,83119.77
2018-12-20T01:22:25.510Z,83117.38
2018-12-20T01:27:28.759Z,83112.98
2018-12-20T01:32:31.951Z,83106.81
2018-12-20T01:37:35.133Z,83097.99
2018-12-20T01:42:38.237Z,83098.99
2018-12-20T01:47:41.383Z,83091.23
2018-12-20T01:52:44.581Z,83100.56
2018-12-20T01:57:47.857Z,83108.48
2018-12-20T02:02:50.941Z,83119.84
2018-12-20T02:07:54.079Z,83113.51
2018-12-20T02:12:57.201Z,83111.25
2018-12-20T02:18:00.394Z,83111.31
2018-12-20T02:23:03.643Z,83107.88
2018-12-20T02:28:06.901Z,83101.33
2018-12-20T02:33:10.086Z,83105.28
2018-12-20T02:38:13.322Z,83110.02
2018-12-20T02:43:16.611Z,83112.72
2018-12-20T02:48:19.980Z,83108.48
2018-12-20T02:53:23.337Z,83105.22
2018-12-20T02:58:26.727Z,83109.39
2018-12-20T03:03:30.008Z,83106.72
2018-12-20T03:08:33.423Z,83121.56
2018-12-20T03:13:36.622Z,83131.56
2018-12-20T03:18:39.856Z,83139.19
2018-12-20T03:23:43.175Z,83144.48
2018-12-20T03:28:46.374Z,83145.25
2018-12-20T03:33:49.575Z,83148.61
2018-12-20T03:38:52.771Z,83158.50
2018-12-20T03:43:56.119Z,83164.23
2018-12-20T03:48:59.332Z,83174.55
2018-12-20T03:54:02.525Z,83171.93
2018-12-20T03:59:05.798Z,83165.58
2018-12-20T04:04:08.959Z,83166.20
2018-12-20T04:09:12.149Z,83171.13
2018-12-20T04:14:15.440Z,83170.30
2018-12-20T04:19:18.592Z,83176.15
2018-12-20T04:24:21.713Z,83184.98
2018-12-20T04:29:24.986Z,83182.38
2018-12-20T04:34:28.122Z,83188.74
2018-12-20T04:39:31.383Z,83188.58
2018-12-20T04:44:34.749Z,83188.41
2018-12-20T04:49:37.903Z,83192.28
2018-12-20T04:54:40.997Z,83187.91
2018-12-20T04:59:44.269Z,83187.95
2018-12-20T05:04:47.426Z,83196.11
2018-12-20T05:09:50.664Z,83195.61
2018-12-20T05:14:53.735Z,83190.55
2018-12-20T05:19:56.971Z,83192.82
2018-12-20T05:25:00.164Z,83190.72
2018-12-20T05:30:03.944Z,83189.71
2018-12-20T05:35:07.293Z,83185.67
2018-12-20T05:40:10.519Z,83177.46
2018-12-20T05:45:13.629Z,83174.72
2018-12-20T05:50:17.161Z,83164.48
2018-12-20T05:55:20.235Z,83159.40
2018-12-20T06:00:23.375Z,83159.44
2018-12-20T06:05:26.479Z,83150.81
2018-12-20T06:10:29.644Z,83146.97
2018-12-20T06:15:33.654Z,83146.38
2018-12-20T06:20:36.782Z,83149.20
2018-12-20T06:25:39.873Z,83148.57
2018-12-20T06:30:43.011Z,83144.31
2018-12-20T06:35:46.078Z,83132.66
2018-12-20T06:40:49.155Z,83121.50
2018-12-20T06:45:52.229Z,83120.37
2018-12-20T06:50:55.302Z,83115.14
2018-12-20T06:55:58.375Z,83111.81
2018-12-20T07:01:01.507Z,83107.88
2018-12-20T07:06:04.578Z,83099.99
2018-12-20T07:11:07.698Z,83097.52
2018-12-20T07:16:10.775Z,83096.73
2018-12-20T07:21:13.845Z,83099.27
2018-12-20T07:26:16.919Z,83100.66
2018-12-20T07:31:19.987Z,83110.14
2018-12-20T07:36:23.091Z,83127.30
2018-12-20T07:41:26.165Z,83138.69
2018-12-20T07:46:37.555Z,83137.26
2018-12-20T07:51:34.294Z,83137.52
2018-12-20T07:56:37.360Z,83140.45
2018-12-20T08:01:40.506Z,83148.87
2018-12-20T08:06:43.578Z,83151.02
2018-12-20T08:11:46.682Z,83154.08
2018-12-20T08:16:49.756Z,83164.61
2018-12-20T08:21:52.858Z,83168.62
2018-12-20T08:26:55.930Z,83174.98
2018-12-20T08:31:59.017Z,83183.05
2018-12-20T08:37:02.089Z,83192.25
2018-12-20T08:42:05.201Z,83203.81
2018-12-20T08:47:08.271Z,83206.14
2018-12-20T08:52:11.347Z,83211.53
2018-12-20T08:57:14.434Z,83216.24
2018-12-20T09:02:17.582Z,83220.16
2018-12-20T09:07:20.655Z,83224.09
2018-12-20T09:12:23.727Z,83223.63
2018-12-20T09:17:26.805Z,83226.09
2018-12-20T09:22:29.878Z,83226.86
2018-12-20T09:27:33.010Z,83221.06
2018-12-20T09:32:36.051Z,83224.92
2018-12-20T09:37:39.119Z,83227.08
2018-12-20T09:42:42.230Z,83224.89
2018-12-20T09:48:00.134Z,83220.13
2018-12-20T09:53:03.394Z,83221.23
2018-12-20T09:58:06.507Z,83223.92
2018-12-20T10:03:09.584Z,83233.89
2018-12-20T10:08:12.660Z,83245.27
2018-12-20T10:13:15.719Z,83251.34
2018-12-20T10:18:18.859Z,83255.42
2018-12-20T10:23:21.914Z,83263.94
2018-12-20T10:28:24.994Z,83276.08
2018-12-20T10:33:28.066Z,83280.55
2018-12-20T10:38:31.133Z,83289.34
2018-12-20T10:43:34.227Z,83291.14
2018-12-20T10:48:37.377Z,83294.31
2018-12-20T10:53:40.551Z,83300.38
2018-12-20T10:58:43.623Z,83301.52
2018-12-20T11:03:46.929Z,83301.21
2018-12-20T11:08:55.714Z,83309.91
2018-12-20T11:13:58.786Z,83332.16
2018-12-20T11:19:01.934Z,83370.41
2018-12-20T11:24:05.001Z,83391.57
2018-12-20T11:29:08.062Z,83396.51
2018-12-20T11:34:11.146Z,83397.82
2018-12-20T11:39:14.338Z,83386.05
2018-12-20T11:44:17.405Z,83372.81
2018-12-20T11:49:20.501Z,83363.13
2018-12-20T11:54:23.601Z,83363.53
2018-12-20T11:59:26.681Z,83356.42
2018-12-20T12:04:29.757Z,83353.84
2018-12-20T12:09:32.867Z,83355.95
2018-12-20T12:14:35.959Z,83370.70
2018-12-20T12:19:39.033Z,83372.97
2018-12-20T12:24:42.120Z,83371.80
2018-12-20T12:29:45.255Z,83382.30
2018-12-20T12:34:48.342Z,83394.88
2018-12-20T12:39:51.446Z,83400.05
2018-12-20T12:44:54.541Z,83403.89
2018-12-20T12:49:57.614Z,83416.77
2018-12-20T12:55:00.694Z,83416.52
2018-12-20T13:00:08.689Z,83404.75
2018-12-20T13:05:11.856Z,83416.77
2018-12-20T13:10:15.055Z,83415.95
2018-12-20T13:15:18.167Z,83404.16
2018-12-20T13:20:21.279Z,83392.91
2018-12-20T13:25:24.383Z,83372.30
2018-12-20T13:30:27.468Z,83361.09
2018-12-20T13:35:30.619Z,83356.42
2018-12-20T13:40:33.715Z,83350.56
2018-12-20T13:45:36.828Z,83348.33
2018-12-20T13:50:39.932Z,83341.32
2018-12-20T13:55:43.033Z,83335.06
2018-12-20T14:00:46.098Z,83335.62
2018-12-20T14:05:49.165Z,83331.66
2018-12-20T14:10:52.318Z,83334.34
2018-12-20T14:15:55.395Z,83328.48
2018-12-20T14:21:00.130Z,83329.81
2018-12-20T14:26:03.282Z,83320.61
2018-12-20T14:31:06.398Z,83320.58
2018-12-20T14:36:09.543Z,83319.98
2018-12-20T14:41:12.682Z,83314.78
2018-12-20T14:46:15.765Z,83310.74
2018-12-20T14:51:18.870Z,83315.38
2018-12-20T14:56:21.938Z,83309.41
2018-12-20T15:01:25.091Z,83304.14
2018-12-20T15:06:28.171Z,83302.52
2018-12-20T15:11:31.241Z,83301.41
2018-12-20T15:16:34.313Z,83304.08
2018-12-20T15:21:37.379Z,83302.48
2018-12-20T15:26:40.468Z,83294.50
2018-12-20T15:31:43.534Z,83282.27
2018-12-20T15:36:46.670Z,83278.05
2018-12-20T15:41:49.777Z,83278.48
2018-12-20T15:46:52.887Z,83277.58
2018-12-20T15:51:55.973Z,83275.87
2018-12-20T15:56:59.059Z,83268.11
2018-12-20T16:02:02.122Z,83269.38
2018-12-20T16:07:05.239Z,83263.78
2018-12-20T16:12:08.320Z,83262.25
2018-12-20T16:17:11.465Z,83254.81
2018-12-20T16:22:14.596Z,83251.91
2018-12-20T16:27:17.726Z,83253.05
2018-12-20T16:32:20.854Z,83242.63
2018-12-20T16:37:23.973Z,83253.05
2018-12-20T16:42:27.047Z,83244.48
2018-12-20T16:47:30.150Z,83246.58
2018-12-20T16:52:33.334Z,83251.84
2018-12-20T16:57:36.465Z,83248.15
2018-12-20T17:02:39.652Z,83239.77
2018-12-20T17:07:42.763Z,83241.69
2018-12-20T17:12:45.962Z,83244.98
2018-12-20T17:17:49.029Z,83242.02
2018-12-20T17:22:52.114Z,83240.72
2018-12-20T17:27:55.196Z,83243.84
2018-12-20T17:32:58.270Z,83243.13
2018-12-20T17:38:01.355Z,83239.77
2018-12-20T17:43:04.480Z,83250.21
2018-12-20T17:48:07.551Z,83249.20
2018-12-20T17:53:10.683Z,83252.25
2018-12-20T17:58:13.805Z,83249.55
2018-12-20T18:03:16.896Z,83246.55
2018-12-20T18:08:19.983Z,83240.73
2018-12-20T18:13:23.127Z,83253.58
2018-12-20T18:18:26.228Z,83250.41
2018-12-20T18:23:29.410Z,83244.39
2018-12-20T18:28:32.511Z,83241.56
2018-12-20T18:33:35.616Z,83243.80
2018-12-20T18:38:38.730Z,83245.62
2018-12-20T18:43:41.832Z,83243.80
2018-12-20T18:48:44.967Z,83239.38
2018-12-20T18:53:48.077Z,83233.98
2018-12-20T18:58:51.189Z,83236.89
2018-12-20T19:03:54.299Z,83234.45
2018-12-20T19:08:57.394Z,83230.63
2018-12-20T19:14:00.486Z,83233.06
2018-12-20T19:19:03.691Z,83234.84
2018-12-20T19:24:07.218Z,83240.09
2018-12-20T19:29:10.335Z,83232.31
2018-12-20T19:34:13.441Z,83224.85
2018-12-20T19:39:16.567Z,83209.56
2018-12-20T19:44:19.674Z,83206.03
2018-12-20T19:49:22.809Z,83209.39
2018-12-20T19:54:25.903Z,83210.92
2018-12-20T19:59:28.988Z,83212.85
2018-12-20T20:04:32.072Z,83214.41
2018-12-20T20:09:35.251Z,83215.66
2018-12-20T20:14:38.402Z,83215.23
2018-12-20T20:19:41.562Z,83218.36
2018-12-20T20:24:44.673Z,83220.38
2018-12-20T20:29:47.816Z,83215.88
2018-12-20T20:34:50.944Z,83218.98
2018-12-20T20:39:54.056Z,83213.86
2018-12-20T20:44:57.262Z,83209.00
2018-12-20T20:50:00.350Z,83211.06
2018-12-20T20:55:05.761Z,83211.63
2018-12-20T21:00:10.444Z,83214.36
2018-12-20T21:05:13.598Z,83220.47
2018-12-20T21:10:16.698Z,83222.83
2018-12-20T21:15:19.819Z,83220.05
2018-12-20T21:20:30.449Z,83225.69
2018-12-20T21:25:28.047Z,83225.56
2018-12-20T21:30:31.181Z,83223.45
2018-12-20T21:35:34.394Z,83223.25
2018-12-20T21:40:37.496Z,83225.95
2018-12-20T21:45:40.618Z,83237.02
2018-12-20T21:50:43.692Z,83244.98
2018-12-20T21:55:46.794Z,83253.92
2018-12-20T22:00:49.858Z,83253.62
2018-12-20T22:05:52.925Z,83253.25
2018-12-20T22:10:56.006Z,83247.05
2018-12-20T22:16:00.061Z,83246.67
2018-12-20T22:21:03.126Z,83244.93
2018-12-20T22:26:06.203Z,83241.23
2018-12-20T22:31:09.266Z,83239.59
2018-12-20T22:36:12.336Z,83242.59
2018-12-20T22:41:15.566Z,83231.92
2018-12-20T22:46:18.703Z,83234.92
2018-12-20T22:51:21.828Z,83242.88
2018-12-20T22:56:24.885Z,83237.19
2018-12-20T23:01:28.013Z,83239.08
2018-12-20T23:06:31.079Z,83236.76
2018-12-20T23:11:35.072Z,83234.41
2018-12-20T23:16:38.145Z,83236.22
2018-12-20T23:21:41.221Z,83237.24
2018-12-20T23:26:44.310Z,83235.84
2018-12-20T23:31:47.421Z,83233.06
2018-12-20T23:36:50.543Z,83229.60
2018-12-20T23:41:53.727Z,83224.81
2018-12-20T23:46:57.769Z,83233.23
2018-12-20T23:52:00.945Z,83237.36
2018-12-20T23:57:04.078Z,83237.69
